Terminal Aerodrome Forecast
Issued by NWS Mt. Holly, NJ

Home | Current Version | Previous Version | Text Only | Print | Product List | Glossary On
Versions: 1 2 3 4 5 6 7 8 9 10 11 12 13 14 15 16 17 18 19 20 21 22 23 24 25
658
FTUS41 KPHI 041733
TAFILG
TAF
KILG 041733Z 0418/0518 05008KT P6SM OVC010
      TEMPO 0418/0420 4SM -SHRA BR OVC007
     FM050100 05008KT P6SM OVC007
     FM050400 03010KT 4SM -DZ BR OVC004
     FM051400 02010KT P6SM OVC007
     FM051700 02010G18KT P6SM OVC012=

USA.gov is the U.S. government's official web portal to all federal, state and local government web resources and services.